createdAt,value
2019-02-04T00:00:24.311Z,88.21
2019-02-04T00:02:52.630Z,88.03
2019-02-04T00:05:20.901Z,87.93
2019-02-04T00:07:49.183Z,87.79
2019-02-04T00:10:17.450Z,88.22
2019-02-04T00:12:45.748Z,88.02
2019-02-04T00:15:14.011Z,88.14
2019-02-04T00:17:42.279Z,89.15
2019-02-04T00:20:11.509Z,88.45
2019-02-04T00:22:39.832Z,87.91
2019-02-04T00:25:08.286Z,87.42
2019-02-04T00:27:36.621Z,87.25
2019-02-04T00:30:08.177Z,87.10
2019-02-04T00:32:36.449Z,87.08
2019-02-04T00:35:05.718Z,86.97
2019-02-04T00:37:33.961Z,87.05
2019-02-04T00:40:02.273Z,86.83
2019-02-04T00:42:30.581Z,86.75
2019-02-04T00:44:58.850Z,87.17
2019-02-04T00:47:27.133Z,87.32
2019-02-04T00:49:55.434Z,87.38
2019-02-04T00:52:24.149Z,88.06
2019-02-04T00:54:52.439Z,88.21
2019-02-04T00:57:20.776Z,89.10
2019-02-04T00:59:49.088Z,89.36
2019-02-04T01:02:17.936Z,89.96
2019-02-04T01:04:46.188Z,90.62
2019-02-04T01:07:14.497Z,90.95
2019-02-04T01:09:42.779Z,90.67
2019-02-04T01:12:11.161Z,91.57
2019-02-04T01:14:39.592Z,91.25
2019-02-04T01:17:08.130Z,91.57
2019-02-04T01:19:36.427Z,91.76
2019-02-04T01:22:04.710Z,92.10
2019-02-04T01:24:32.980Z,91.67
2019-02-04T01:27:01.285Z,91.45
2019-02-04T01:29:29.556Z,91.31
2019-02-04T01:31:57.819Z,91.15
2019-02-04T01:34:26.186Z,91.52
2019-02-04T01:36:54.461Z,91.49
2019-02-04T01:39:22.705Z,91.50
2019-02-04T01:41:50.982Z,91.07
2019-02-04T01:44:19.358Z,91.47
2019-02-04T01:46:47.619Z,91.59
2019-02-04T01:49:15.913Z,90.77
2019-02-04T01:51:44.173Z,90.27
2019-02-04T01:54:12.460Z,91.03
2019-02-04T01:56:40.734Z,91.46
2019-02-04T01:59:09.026Z,91.27
2019-02-04T02:01:37.328Z,91.12
2019-02-04T02:04:05.758Z,90.97
2019-02-04T02:06:34.040Z,91.62
2019-02-04T02:09:04.102Z,91.60
2019-02-04T02:11:32.579Z,90.93
2019-02-04T02:14:00.862Z,90.99
2019-02-04T02:16:29.120Z,90.78
2019-02-04T02:18:57.478Z,90.68
2019-02-04T02:21:25.787Z,90.84
2019-02-04T02:23:54.063Z,90.77
2019-02-04T02:26:22.340Z,90.70
2019-02-04T02:28:50.640Z,91.00
2019-02-04T02:31:18.957Z,90.60
2019-02-04T02:33:47.604Z,89.59
2019-02-04T02:36:15.883Z,88.51
2019-02-04T02:38:44.143Z,89.56
2019-02-04T02:41:12.393Z,89.20
2019-02-04T02:43:40.857Z,88.87
2019-02-04T02:46:09.134Z,88.62
2019-02-04T02:48:37.507Z,88.42
2019-02-04T02:51:05.768Z,88.30
2019-02-04T02:53:34.057Z,88.18
2019-02-04T02:56:02.349Z,88.15
2019-02-04T02:58:30.614Z,88.11
2019-02-04T03:00:58.997Z,89.02
2019-02-04T03:03:27.250Z,90.24
2019-02-04T03:05:55.913Z,90.49
2019-02-04T03:08:24.834Z,90.13
2019-02-04T03:10:53.112Z,89.85
2019-02-04T03:13:21.366Z,89.45
2019-02-04T03:15:49.730Z,89.26
2019-02-04T03:18:18.033Z,89.76
2019-02-04T03:20:46.496Z,90.57
2019-02-04T03:23:14.762Z,90.64
2019-02-04T03:25:43.048Z,90.41
2019-02-04T03:28:11.314Z,90.77
2019-02-04T03:30:39.600Z,90.77
2019-02-04T03:33:07.874Z,90.83
2019-02-04T03:35:36.176Z,90.33
2019-02-04T03:38:04.422Z,89.93
2019-02-04T03:40:32.946Z,90.02
2019-02-04T03:43:01.253Z,90.81
2019-02-04T03:45:29.559Z,91.12
2019-02-04T03:48:06.336Z,92.24
2019-02-04T03:50:27.818Z,92.86
2019-02-04T03:52:56.099Z,93.15
2019-02-04T03:55:24.341Z,92.92
2019-02-04T03:57:52.606Z,92.61
2019-02-04T04:00:32.256Z,92.15
2019-02-04T04:03:00.625Z,91.38
2019-02-04T04:05:29.055Z,91.49
2019-02-04T04:07:57.358Z,90.67
2019-02-04T04:10:25.629Z,89.83
2019-02-04T04:12:53.888Z,89.06
2019-02-04T04:15:22.750Z,88.51
2019-02-04T04:17:51.007Z,88.31
2019-02-04T04:20:20.406Z,88.52
2019-02-04T04:22:48.678Z,88.81
2019-02-04T04:25:19.701Z,89.58
2019-02-04T04:27:48.348Z,91.26
2019-02-04T04:30:28.431Z,91.90
2019-02-04T04:32:56.990Z,91.58
2019-02-04T04:35:25.287Z,92.69
2019-02-04T04:37:53.617Z,92.33
2019-02-04T04:40:21.881Z,92.28
2019-02-04T04:42:50.176Z,92.01
2019-02-04T04:45:20.935Z,92.26
2019-02-04T04:47:49.751Z,91.62
2019-02-04T04:50:18.013Z,91.33
2019-02-04T04:52:46.385Z,91.17
2019-02-04T04:55:17.311Z,91.23
2019-02-04T04:57:45.580Z,90.32
2019-02-04T05:00:16.390Z,89.71
2019-02-04T05:02:44.827Z,89.58
2019-02-04T05:05:14.160Z,90.61
2019-02-04T05:07:42.500Z,90.75
2019-02-04T05:10:13.780Z,91.03
2019-02-04T05:12:42.032Z,91.41
2019-02-04T05:15:13.346Z,90.87
2019-02-04T05:17:41.608Z,91.31
2019-02-04T05:20:12.596Z,91.60
2019-02-04T05:22:40.861Z,91.55
2019-02-04T05:25:09.354Z,91.45
2019-02-04T05:27:37.825Z,90.85
2019-02-04T05:30:14.683Z,90.31
2019-02-04T05:32:42.984Z,90.34
2019-02-04T05:35:11.445Z,90.51
2019-02-04T05:37:39.710Z,90.16
2019-02-04T05:40:10.736Z,89.94
2019-02-04T05:42:39.025Z,90.78
2019-02-04T05:45:09.990Z,90.74
2019-02-04T05:47:38.285Z,90.08
2019-02-04T05:50:09.718Z,89.71
2019-02-04T05:52:38.000Z,89.70
2019-02-04T05:55:07.095Z,89.86
2019-02-04T05:57:35.520Z,90.44
2019-02-04T06:00:06.789Z,90.31
2019-02-04T06:02:35.059Z,90.52
2019-02-04T06:05:03.783Z,89.82
2019-02-04T06:07:32.064Z,89.29
2019-02-04T06:10:00.365Z,89.40
2019-02-04T06:12:28.604Z,90.03
2019-02-04T06:14:56.882Z,89.82
2019-02-04T06:17:25.138Z,90.05
2019-02-04T06:19:53.438Z,91.14
2019-02-04T06:22:21.749Z,91.54
2019-02-04T06:24:50.331Z,91.28
2019-02-04T06:27:18.596Z,91.32
2019-02-04T06:29:47.282Z,90.94
2019-02-04T06:32:15.536Z,91.01
2019-02-04T06:34:43.814Z,90.79
2019-02-04T06:37:12.118Z,90.90
2019-02-04T06:39:40.639Z,90.92
2019-02-04T06:42:08.898Z,90.91
2019-02-04T06:44:37.467Z,91.28
2019-02-04T06:47:05.776Z,91.29
2019-02-04T06:49:34.021Z,90.69
2019-02-04T06:52:02.531Z,90.51
2019-02-04T06:54:30.774Z,90.70
2019-02-04T06:56:59.314Z,90.84
2019-02-04T06:59:27.596Z,91.17
2019-02-04T07:01:57.719Z,90.94
2019-02-04T07:04:25.891Z,90.82
2019-02-04T07:06:54.341Z,90.54
2019-02-04T07:09:22.616Z,90.37
2019-02-04T07:11:50.923Z,90.26
2019-02-04T07:14:19.198Z,90.02
2019-02-04T07:16:47.854Z,90.22
2019-02-04T07:19:23.678Z,90.41
2019-02-04T07:21:46.149Z,90.42
2019-02-04T07:24:14.467Z,90.34
2019-02-04T07:26:42.758Z,90.35
2019-02-04T07:29:11.014Z,90.41
2019-02-04T07:31:39.294Z,90.21
2019-02-04T07:34:07.561Z,90.20
2019-02-04T07:36:35.856Z,90.02
2019-02-04T07:39:06.228Z,90.04
2019-02-04T07:41:34.509Z,89.91
2019-02-04T07:44:02.845Z,89.98
2019-02-04T07:46:31.132Z,89.80
2019-02-04T07:48:59.667Z,89.67
2019-02-04T07:51:27.981Z,89.72
2019-02-04T07:53:56.229Z,89.47
2019-02-04T07:56:25.431Z,89.43
2019-02-04T07:58:53.725Z,89.39
2019-02-04T08:01:22.178Z,89.44
2019-02-04T08:03:50.819Z,88.97
2019-02-04T08:06:19.344Z,89.15
2019-02-04T08:08:47.602Z,88.53
2019-02-04T08:11:15.864Z,87.99
2019-02-04T08:13:44.147Z,88.18
2019-02-04T08:16:12.397Z,87.85
2019-02-04T08:18:40.751Z,87.08
2019-02-04T08:21:09.104Z,87.29
2019-02-04T08:23:37.427Z,86.88
2019-02-04T08:26:05.690Z,86.41
2019-02-04T08:28:33.973Z,85.65
2019-02-04T08:31:02.240Z,85.49
2019-02-04T08:33:30.582Z,85.16
2019-02-04T08:35:59.207Z,84.59
2019-02-04T08:38:27.489Z,84.68
2019-02-04T08:40:55.753Z,84.67
2019-02-04T08:43:24.096Z,84.00
2019-02-04T08:45:52.399Z,83.20
2019-02-04T08:48:20.747Z,81.94
2019-02-04T08:50:49.003Z,81.94
2019-02-04T08:53:17.742Z,81.29
2019-02-04T08:55:46.018Z,80.28
2019-02-04T08:58:14.266Z,80.38
2019-02-04T09:00:42.704Z,80.09
2019-02-04T09:03:11.025Z,79.29
2019-02-04T09:05:39.323Z,79.23
2019-02-04T09:08:07.702Z,78.59
2019-02-04T09:10:36.232Z,78.14
2019-02-04T09:13:04.508Z,78.19
2019-02-04T09:15:32.758Z,77.84
2019-02-04T09:18:01.276Z,77.96
2019-02-04T09:20:29.524Z,77.41
2019-02-04T09:22:57.776Z,76.78
2019-02-04T09:25:27.000Z,76.78
2019-02-04T09:27:56.728Z,76.61
2019-02-04T09:30:27.551Z,76.50
2019-02-04T09:32:57.275Z,75.83
2019-02-04T09:35:25.549Z,75.46
2019-02-04T09:37:54.132Z,75.48
2019-02-04T09:40:30.637Z,75.73
2019-02-04T09:42:58.897Z,74.91
2019-02-04T09:45:27.869Z,75.00
2019-02-04T09:47:56.486Z,75.12
2019-02-04T09:50:32.545Z,74.31
2019-02-04T09:53:00.867Z,74.18
2019-02-04T09:55:32.367Z,73.18
2019-02-04T09:58:00.646Z,73.30
2019-02-04T10:00:30.976Z,73.06
2019-02-04T10:02:59.216Z,73.08
2019-02-04T10:05:27.552Z,72.82
2019-02-04T10:07:55.796Z,72.51
2019-02-04T10:10:26.204Z,71.78
2019-02-04T10:12:54.473Z,72.15
2019-02-04T10:15:28.947Z,71.84
2019-02-04T10:17:57.268Z,71.38
2019-02-04T10:20:33.307Z,71.01
2019-02-04T10:22:55.937Z,71.02
2019-02-04T10:25:27.257Z,70.71
2019-02-04T10:27:55.499Z,70.38
2019-02-04T10:30:24.588Z,69.41
2019-02-04T10:32:52.897Z,69.57
2019-02-04T10:35:21.480Z,69.13
2019-02-04T10:37:51.132Z,68.83
2019-02-04T10:40:25.607Z,67.76
2019-02-04T10:42:53.298Z,67.51
2019-02-04T10:45:21.796Z,64.06
2019-02-04T10:47:50.714Z,67.93
2019-02-04T10:50:30.589Z,67.70
2019-02-04T10:52:58.970Z,67.02
2019-02-04T10:55:27.331Z,66.75
2019-02-04T10:57:55.847Z,65.17
2019-02-04T11:00:34.727Z,65.31
2019-02-04T11:03:03.400Z,65.57
2019-02-04T11:05:34.379Z,65.47
2019-02-04T11:08:02.634Z,65.47
2019-02-04T11:10:35.566Z,64.98
2019-02-04T11:13:06.757Z,64.36
2019-02-04T11:15:35.006Z,64.62
2019-02-04T11:18:03.326Z,63.89
2019-02-04T11:20:32.953Z,64.08
2019-02-04T11:23:01.308Z,63.90
2019-02-04T11:25:29.668Z,63.70
2019-02-04T11:27:57.986Z,63.25
2019-02-04T11:30:31.852Z,63.31
2019-02-04T11:33:00.160Z,62.56
2019-02-04T11:35:28.453Z,62.93
2019-02-04T11:37:56.718Z,62.42
2019-02-04T11:40:34.042Z,62.52
2019-02-04T11:43:02.299Z,62.74
2019-02-04T11:45:31.035Z,62.73
2019-02-04T11:47:59.472Z,62.75
2019-02-04T11:50:27.812Z,62.77
2019-02-04T11:52:56.126Z,62.45
2019-02-04T11:55:24.477Z,61.44
2019-02-04T11:57:52.870Z,61.77
2019-02-04T12:00:27.091Z,61.54
2019-02-04T12:02:55.975Z,60.90
2019-02-04T12:05:24.400Z,61.09
2019-02-04T12:07:53.219Z,60.94
2019-02-04T12:10:27.595Z,60.39
2019-02-04T12:12:55.942Z,59.98
2019-02-04T12:15:24.187Z,60.11
2019-02-04T12:17:52.467Z,59.39
2019-02-04T12:20:20.718Z,60.52
2019-02-04T12:22:49.415Z,60.53
2019-02-04T12:25:25.970Z,60.38
2019-02-04T12:27:54.832Z,60.55
2019-02-04T12:30:26.367Z,60.00
2019-02-04T12:32:55.022Z,60.08
2019-02-04T12:35:23.269Z,60.50
2019-02-04T12:37:51.578Z,59.81
2019-02-04T12:40:19.824Z,60.07
2019-02-04T12:42:48.455Z,60.05
2019-02-04T12:45:22.547Z,60.12
2019-02-04T12:47:50.363Z,59.73
2019-02-04T12:50:18.628Z,58.46
2019-02-04T12:52:46.902Z,60.15
2019-02-04T12:55:21.011Z,59.81
2019-02-04T12:57:49.542Z,59.90
2019-02-04T13:00:22.098Z,59.74
2019-02-04T13:02:50.440Z,59.51
2019-02-04T13:05:30.799Z,59.37
2019-02-04T13:07:59.359Z,59.00
2019-02-04T13:10:27.641Z,59.67
2019-02-04T13:12:55.881Z,59.57
2019-02-04T13:15:24.843Z,58.89
2019-02-04T13:17:53.583Z,58.88
2019-02-04T13:20:23.114Z,59.25
2019-02-04T13:22:51.560Z,59.61
2019-02-04T13:25:22.983Z,59.62
2019-02-04T13:27:51.274Z,59.76
2019-02-04T13:30:22.181Z,59.73
2019-02-04T13:32:50.434Z,59.53
2019-02-04T13:35:18.712Z,59.71
2019-02-04T13:37:46.997Z,59.57
2019-02-04T13:40:18.012Z,59.85
2019-02-04T13:42:46.310Z,59.75
2019-02-04T13:45:16.981Z,59.82
2019-02-04T13:47:45.263Z,60.03
2019-02-04T13:50:15.541Z,59.99
2019-02-04T13:52:44.350Z,60.27
2019-02-04T13:55:15.856Z,60.39
2019-02-04T13:57:44.171Z,60.37
2019-02-04T14:00:14.132Z,60.37
2019-02-04T14:02:42.390Z,60.39
2019-02-04T14:05:11.513Z,60.54
2019-02-04T14:07:39.939Z,60.53
2019-02-04T14:10:23.565Z,60.63
2019-02-04T14:12:52.018Z,60.74
2019-02-04T14:15:20.296Z,60.89
2019-02-04T14:17:48.540Z,61.00
2019-02-04T14:20:20.459Z,61.08
2019-02-04T14:22:48.878Z,60.92
2019-02-04T14:25:17.359Z,60.70
2019-02-04T14:27:45.642Z,60.77
2019-02-04T14:30:25.645Z,60.94
2019-02-04T14:32:53.888Z,60.86
2019-02-04T14:35:22.168Z,60.79
2019-02-04T14:37:50.414Z,60.75
2019-02-04T14:40:19.138Z,60.45
2019-02-04T14:42:50.812Z,60.34
2019-02-04T14:45:28.207Z,60.59
2019-02-04T14:48:26.380Z,60.61
2019-02-04T14:50:57.913Z,60.71
2019-02-04T14:53:32.600Z,60.53
2019-02-04T14:56:06.920Z,60.35
2019-02-04T14:58:44.778Z,59.97
2019-02-04T15:01:16.343Z,60.21
2019-02-04T15:03:53.930Z,60.37
2019-02-04T15:06:51.465Z,60.21
2019-02-04T15:09:35.277Z,59.47
2019-02-04T15:12:23.496Z,59.70
2019-02-04T15:15:04.009Z,59.69
2019-02-04T15:17:33.338Z,59.67
2019-02-04T15:20:13.825Z,59.36
2019-02-04T15:22:54.185Z,59.39
2019-02-04T15:25:28.414Z,59.21
2019-02-04T15:28:12.165Z,58.94
2019-02-04T15:30:49.608Z,58.47
2019-02-04T15:33:21.598Z,58.43
2019-02-04T15:36:07.880Z,59.14
2019-02-04T15:38:39.748Z,58.37
2019-02-04T15:41:17.280Z,58.70
2019-02-04T15:44:11.545Z,58.67
2019-02-04T15:46:48.609Z,58.40
2019-02-04T15:49:29.768Z,57.99
2019-02-04T15:51:58.489Z,58.08
2019-02-04T15:54:26.856Z,58.30
2019-02-04T15:56:55.383Z,58.01
2019-02-04T15:59:23.633Z,58.07
2019-02-04T16:01:52.290Z,57.89
2019-02-04T16:04:34.237Z,57.94
2019-02-04T16:07:03.439Z,57.82
2019-02-04T16:09:31.687Z,57.48
2019-02-04T16:11:59.926Z,57.30
2019-02-04T16:14:28.603Z,57.09
2019-02-04T16:16:56.847Z,56.98
2019-02-04T16:19:25.126Z,56.90
2019-02-04T16:21:53.467Z,57.22
2019-02-04T16:24:22.666Z,57.29
2019-02-04T16:26:51.104Z,57.21
2019-02-04T16:29:19.361Z,57.23
2019-02-04T16:31:47.942Z,57.62
2019-02-04T16:34:16.185Z,56.78
2019-02-04T16:36:44.459Z,57.42
2019-02-04T16:39:12.722Z,57.86
2019-02-04T16:41:40.971Z,57.40
2019-02-04T16:44:09.323Z,57.86
2019-02-04T16:46:37.570Z,57.66
2019-02-04T16:49:05.814Z,57.90
2019-02-04T16:51:34.095Z,58.05
2019-02-04T16:54:02.570Z,57.93
2019-02-04T16:56:30.826Z,57.81
2019-02-04T16:58:59.252Z,57.36
2019-02-04T17:01:27.527Z,57.49
2019-02-04T17:03:56.142Z,57.29
2019-02-04T17:06:24.389Z,57.46
2019-02-04T17:08:52.713Z,57.35
2019-02-04T17:11:20.961Z,57.09
2019-02-04T17:13:49.236Z,57.43
2019-02-04T17:16:17.549Z,57.32
2019-02-04T17:18:45.841Z,58.06
2019-02-04T17:21:14.087Z,57.84
2019-02-04T17:23:42.421Z,57.70
2019-02-04T17:26:10.700Z,57.85
2019-02-04T17:28:39.084Z,57.81
2019-02-04T17:31:07.329Z,57.43
2019-02-04T17:33:35.626Z,57.66
2019-02-04T17:36:04.337Z,57.77
2019-02-04T17:38:32.611Z,57.43
2019-02-04T17:41:00.983Z,57.22
2019-02-04T17:43:29.218Z,57.65
2019-02-04T17:45:57.576Z,57.71
2019-02-04T17:48:26.823Z,57.25
2019-02-04T17:50:55.331Z,57.57
2019-02-04T17:53:33.944Z,57.39
2019-02-04T17:55:53.880Z,57.68
2019-02-04T17:58:22.154Z,57.88
2019-02-04T18:00:51.566Z,58.12
2019-02-04T18:03:19.810Z,58.40
2019-02-04T18:05:48.072Z,58.13
2019-02-04T18:08:16.511Z,58.54
2019-02-04T18:10:44.743Z,58.55
2019-02-04T18:13:13.027Z,58.66
2019-02-04T18:15:41.277Z,58.46
2019-02-04T18:18:09.536Z,58.37
2019-02-04T18:20:37.821Z,58.38
2019-02-04T18:23:06.474Z,58.35
2019-02-04T18:25:34.706Z,57.95
2019-02-04T18:28:03.261Z,57.79
2019-02-04T18:30:31.981Z,57.92
2019-02-04T18:33:00.304Z,58.04
2019-02-04T18:35:29.020Z,58.20
2019-02-04T18:37:57.309Z,58.54
2019-02-04T18:40:25.701Z,58.23
2019-02-04T18:42:54.324Z,58.31
2019-02-04T18:45:31.119Z,58.30
2019-02-04T18:47:59.443Z,58.46
2019-02-04T18:50:28.097Z,58.13
2019-02-04T18:52:56.342Z,58.05
2019-02-04T18:55:29.865Z,58.01
2019-02-04T18:57:58.138Z,57.83
2019-02-04T19:00:28.902Z,57.88
2019-02-04T19:02:57.490Z,57.72
2019-02-04T19:05:26.824Z,57.96
2019-02-04T19:07:55.315Z,58.26
2019-02-04T19:10:24.056Z,58.32
2019-02-04T19:12:52.298Z,58.39
2019-02-04T19:15:28.481Z,58.22
2019-02-04T19:18:06.319Z,58.18
2019-02-04T19:20:34.604Z,57.87
2019-02-04T19:23:02.848Z,57.95
2019-02-04T19:25:31.295Z,58.17
2019-02-04T19:27:59.544Z,58.41
2019-02-04T19:30:33.919Z,58.30
2019-02-04T19:33:01.571Z,58.40
2019-02-04T19:35:29.954Z,58.67
2019-02-04T19:37:58.213Z,58.87
2019-02-04T19:40:26.973Z,59.02
2019-02-04T19:42:55.246Z,59.24
2019-02-04T19:45:26.034Z,59.15
2019-02-04T19:47:54.618Z,59.24
2019-02-04T19:50:34.061Z,59.75
2019-02-04T19:53:02.342Z,60.21
2019-02-04T19:55:30.578Z,60.39
2019-02-04T19:57:58.863Z,60.38
2019-02-04T20:00:27.869Z,60.35
2019-02-04T20:02:56.123Z,60.38
2019-02-04T20:05:28.876Z,60.66
2019-02-04T20:07:57.107Z,60.69
2019-02-04T20:10:32.376Z,60.91
2019-02-04T20:13:00.686Z,61.37
2019-02-04T20:15:30.790Z,61.69
2019-02-04T20:17:59.023Z,61.96
2019-02-04T20:20:27.506Z,62.28
2019-02-04T20:22:56.248Z,62.50
2019-02-04T20:25:29.681Z,62.53
2019-02-04T20:27:58.000Z,62.60
2019-02-04T20:30:43.517Z,62.68
2019-02-04T20:33:01.994Z,62.81
2019-02-04T20:35:30.273Z,62.81
2019-02-04T20:37:58.608Z,62.90
2019-02-04T20:40:27.701Z,62.83
2019-02-04T20:42:55.959Z,62.87
2019-02-04T20:45:24.603Z,62.89
2019-02-04T20:47:53.019Z,62.94
2019-02-04T20:50:24.726Z,62.90
2019-02-04T20:52:53.187Z,63.23
2019-02-04T20:55:21.540Z,62.96
2019-02-04T20:57:49.832Z,63.04
2019-02-04T21:00:20.627Z,63.19
2019-02-04T21:02:48.877Z,63.98
2019-02-04T21:05:17.145Z,64.14
2019-02-04T21:07:45.422Z,64.24
2019-02-04T21:10:17.182Z,64.18
2019-02-04T21:12:45.432Z,64.20
2019-02-04T21:15:16.226Z,64.29
2019-02-04T21:17:44.721Z,64.28
2019-02-04T21:20:18.102Z,64.44
2019-02-04T21:22:45.722Z,64.39
2019-02-04T21:25:14.467Z,65.09
2019-02-04T21:27:42.901Z,64.74
2019-02-04T21:30:20.373Z,64.81
2019-02-04T21:32:48.668Z,64.85
2019-02-04T21:35:16.914Z,65.50
2019-02-04T21:37:45.163Z,65.99
2019-02-04T21:40:17.868Z,65.90
2019-02-04T21:42:46.530Z,66.05
2019-02-04T21:45:20.207Z,66.30
2019-02-04T21:47:47.847Z,66.38
2019-02-04T21:50:19.367Z,67.09
2019-02-04T21:52:47.645Z,66.51
2019-02-04T21:55:16.134Z,66.41
2019-02-04T21:57:44.812Z,66.57
2019-02-04T22:00:16.392Z,66.79
2019-02-04T22:02:44.715Z,66.88
2019-02-04T22:05:15.785Z,67.11
2019-02-04T22:07:44.038Z,67.13
2019-02-04T22:10:15.236Z,67.10
2019-02-04T22:12:43.583Z,67.09
2019-02-04T22:15:11.860Z,67.36
2019-02-04T22:17:40.141Z,67.46
2019-02-04T22:20:14.308Z,67.67
2019-02-04T22:22:42.586Z,67.88
2019-02-04T22:25:19.488Z,67.90
2019-02-04T22:27:42.694Z,67.96
2019-02-04T22:30:14.588Z,68.12
2019-02-04T22:32:43.102Z,68.37
2019-02-04T22:35:11.647Z,68.34
2019-02-04T22:37:39.920Z,68.44
2019-02-04T22:40:17.021Z,68.51
2019-02-04T22:42:45.282Z,68.48
2019-02-04T22:45:16.031Z,68.84
2019-02-04T22:47:44.291Z,69.17
2019-02-04T22:50:18.096Z,69.26
2019-02-04T22:52:46.388Z,69.31
2019-02-04T22:55:14.903Z,69.26
2019-02-04T22:57:43.145Z,69.37
2019-02-04T23:00:41.703Z,69.88
2019-02-04T23:03:10.628Z,70.00
2019-02-04T23:05:38.850Z,70.67
2019-02-04T23:08:07.252Z,71.34
2019-02-04T23:10:35.451Z,71.43
2019-02-04T23:13:03.688Z,72.12
2019-02-04T23:15:31.958Z,72.83
2019-02-04T23:18:00.249Z,73.15
2019-02-04T23:20:28.781Z,73.51
2019-02-04T23:22:57.030Z,73.85
2019-02-04T23:25:25.478Z,74.12
2019-02-04T23:27:53.764Z,74.12
2019-02-04T23:30:22.304Z,74.50
2019-02-04T23:32:50.519Z,74.83
2019-02-04T23:35:19.083Z,75.43
2019-02-04T23:37:47.365Z,75.45
2019-02-04T23:40:16.947Z,75.92
2019-02-04T23:42:45.348Z,76.15
2019-02-04T23:45:13.668Z,77.82
2019-02-04T23:47:41.910Z,77.75
2019-02-04T23:50:15.089Z,77.91
2019-02-04T23:52:43.334Z,78.19
2019-02-04T23:55:12.565Z,78.71
2019-02-04T23:57:40.993Z,79.41
